Myerstown, Pennsylvania
Current Conditions -  °F | °C
As of 7:58 AM on Friday 19 Dec 2014 (Local Time) from KMUI Reporting Station
Overcast Overcast  
Wind Chill: 29°   Ceiling: 3000
Heat Index: 35°   Visibility: 10mi
Dew Point: 23°   Wind: 7mph
Humidity: 63%   Direction: NA
Pressure: 30.08"   Gusts: NA
Location:  40.37°N, 76.3°W
Report Text: KMUI 191258Z AUTO VRB06KT 10SM OVC030 02/M05 A3008 RMK AO2 SLP193 T00151048
Loading
Personal Weather Stations






























Interactive Weather Map New forecast layout! Learn more

10-Day Weather Forecast

Advertisements
Track Severe Weather on mobile